Gays, Illinois
Current Conditions -  °F | °C
As of 6:53 PM on Saturday 25 Oct 2014 (Local Time) from KMTO Reporting Station
Clear Clear  
Wind Chill: 66°   Ceiling: Unl
Heat Index: 66°   Visibility: 10mi
Dew Point: 45°   Wind: 7mph
Humidity: 47%   Direction: 280°W
Pressure: 29.98"   Gusts: NA
Location:  39.46°N, 88.49°W
Report Text: KMTO 252353Z AUTO 28006KT 10SM CLR 19/07 A2998 RMK AO2 SLP150 T01890072 10256 20183 53002
Loading
Personal Weather Stations






























Interactive Weather Map
Tropical Storm Tracking
New forecast layout! Learn more

10-Day Weather Forecast

Advertisements
Track Severe Weather on mobile